Time;durP1;ratioP1;P1;durP2;ratioP2;P2;SDS_P1;SDS_P2;PMS_P1;PMS_P2;Temp;Humidity;BMP_temperature;BMP_pressure;BME280_temperature;BME280_humidity;BME280_pressure;Samples;Min_cycle;Max_cycle;Signal;HPM_P1;HPM_P2
2022/07/04 00:06:22;;;;;;;5.65;2.50;;;;;;;22.11;56.42;100472.78;18569469;31;20146;-56
2022/07/04 00:16:27;;;;;;;5.78;3.08;;;;;;;21.77;58.62;100462.00;18560925;32;20444;-56
2022/07/04 00:26:30;;;;;;;5.28;2.42;;;;;;;21.83;59.31;100452.88;18560803;32;20144;-56
2022/07/04 00:36:36;;;;;;;6.47;2.95;;;;;;;21.67;60.52;100469.56;18561181;32;20092;-56
2022/07/04 00:46:39;;;;;;;8.15;3.40;;;;;;;21.70;60.95;100474.72;18559432;32;20182;-56
2022/07/04 00:56:45;;;;;;;7.37;3.08;;;;;;;21.67;60.32;100469.56;18560174;32;20499;-56
2022/07/04 01:06:49;;;;;;;8.07;3.33;;;;;;;21.30;62.10;100465.94;18559389;32;20376;-56
2022/07/04 01:16:54;;;;;;;7.15;3.05;;;;;;;21.12;62.65;100468.50;18558777;32;20361;-56
2022/07/04 01:26:58;;;;;;;7.78;3.12;;;;;;;21.25;62.30;100475.91;18556916;32;20088;-56
2022/07/04 01:37:02;;;;;;;8.00;3.70;;;;;;;21.37;61.70;100466.50;18557648;32;20102;-56
2022/07/04 01:47:07;;;;;;;7.45;3.40;;;;;;;20.16;66.29;100477.87;18556072;32;20150;-55
2022/07/04 01:57:12;;;;;;;6.15;2.92;;;;;;;20.63;63.15;100461.75;18565237;32;20093;-55
2022/07/04 02:07:17;;;;;;;9.27;3.40;;;;;;;20.93;62.06;100473.78;18564863;32;20118;-55
2022/07/04 02:17:21;;;;;;;7.85;3.20;;;;;;;20.63;62.85;100482.97;18564668;32;20102;-55
2022/07/04 02:27:25;;;;;;;7.35;3.50;;;;;;;20.72;62.89;100487.00;18564369;32;20092;-56
2022/07/04 02:37:29;;;;;;;7.95;3.55;;;;;;;20.76;62.41;100485.97;18565174;32;20096;-56
2022/07/04 02:47:34;;;;;;;6.70;3.33;;;;;;;20.76;62.27;100493.91;18563373;32;20145;-55
2022/07/04 02:57:38;;;;;;;7.15;3.25;;;;;;;20.86;62.34;100488.25;18563613;32;20364;-55
2022/07/04 03:07:42;;;;;;;6.68;3.22;;;;;;;20.78;62.56;100494.72;18563253;32;20109;-55
2022/07/04 03:17:45;;;;;;;8.10;3.60;;;;;;;20.66;62.36;100501.41;18562859;32;20137;-55
2022/07/04 03:27:50;;;;;;;7.43;3.37;;;;;;;20.72;62.49;100510.88;18562856;32;20096;-55
2022/07/04 03:37:53;;;;;;;7.22;3.00;;;;;;;20.93;61.77;100508.28;18568962;31;20111;-55
2022/07/04 03:47:58;;;;;;;7.62;3.37;;;;;;;20.98;61.47;100502.78;18596558;31;20096;-55
2022/07/04 03:58:04;;;;;;;7.90;3.53;;;;;;;20.75;64.10;100501.94;18620117;31;20110;-55
2022/07/04 04:08:08;;;;;;;6.15;3.00;;;;;;;21.38;61.81;100490.34;18566918;31;20080;-55
2022/07/04 04:18:11;;;;;;;7.53;3.40;;;;;;;21.76;61.65;100495.69;18560535;32;20129;-56
2022/07/04 04:28:16;;;;;;;7.40;3.20;;;;;;;;;;18560620;32;20093;-55
2022/07/04 04:38:19;;;;;;;5.60;2.60;;;;;;;24.35;53.70;100491.06;18560725;32;20096;-55
2022/07/04 04:48:24;;;;;;;7.30;2.50;;;;;;;24.87;50.89;100482.69;18559088;32;20115;-56
2022/07/04 04:58:27;;;;;;;10.98;3.03;;;;;;;25.64;50.56;100482.38;18544292;32;20096;-56
2022/07/04 05:08:31;;;;;;;7.40;2.87;;;;;;;25.76;49.95;100476.25;18557985;32;20092;-56
2022/07/04 05:18:34;;;;;;;7.53;2.90;;;;;;;26.25;49.01;100489.16;18557526;32;20100;-56
2022/07/04 05:28:39;;;;;;;6.40;2.90;;;;;;;26.51;48.48;100489.22;18563195;32;20118;-56
2022/07/04 05:38:42;;;;;;;5.20;2.87;;;;;;;27.07;46.39;100494.28;18565599;32;20103;-56
2022/07/04 05:48:47;;;;;;;8.00;2.92;;;;;;;27.03;45.92;100500.84;18565063;32;20096;-55
2022/07/04 05:58:50;;;;;;;5.85;2.80;;;;;;;28.02;44.99;100505.44;18565141;32;20096;-55
2022/07/04 06:08:55;;;;;;;8.27;3.00;;;;;;;27.74;46.31;100491.41;18550385;32;20100;-55
2022/07/04 06:18:58;;;;;;;6.95;3.05;;;;;;;29.07;43.41;100497.50;18564492;32;20110;-55
2022/07/04 06:29:03;;;;;;;5.37;2.60;;;;;;;29.69;41.83;100490.88;18561677;32;20122;-55
2022/07/04 06:39:06;;;;;;;4.00;2.08;;;;;;;30.01;40.38;100490.88;18558486;31;20092;-56
2022/07/04 06:49:11;;;;;;;3.22;1.70;;;;;;;30.76;35.18;100494.59;18562679;32;20376;-56
2022/07/04 06:59:14;;;;;;;5.18;1.75;;;;;;;31.69;32.57;100481.06;18564584;32;20103;-56
2022/07/04 07:09:19;;;;;;;3.58;1.80;;;;;;;32.25;29.51;100476.84;18586707;31;20126;-56
2022/07/04 07:19:22;;;;;;;2.00;1.23;;;;;;;32.73;29.85;100476.94;18590144;31;20148;-56
2022/07/04 07:29:27;;;;;;;1.75;1.10;;;;;;;33.46;24.65;100475.38;18558046;32;20096;-55
2022/07/04 07:39:30;;;;;;;2.37;1.25;;;;;;;34.16;24.31;100473.88;18562281;32;20122;-55
2022/07/04 07:49:34;;;;;;;2.83;1.23;;;;;;;34.29;23.47;100478.91;18561213;32;20129;-55
2022/07/04 07:59:38;;;;;;;1.67;1.08;;;;;;;34.66;23.76;100486.94;18560354;32;20145;-55
2022/07/04 08:09:42;;;;;;;1.90;1.00;;;;;;;34.42;22.70;100480.34;18561325;32;20104;-55
2022/07/04 08:19:47;;;;;;;3.58;1.10;;;;;;;35.00;21.90;100464.44;18563700;31;20103;-55
2022/07/04 08:29:52;;;;;;;2.00;1.10;;;;;;;35.19;22.20;100457.94;18571282;31;20084;-55
2022/07/04 08:39:56;;;;;;;2.05;1.30;;;;;;;35.23;21.35;100451.16;18582407;31;20156;-56
2022/07/04 08:50:10;;;;;;;2.08;1.12;;;;;;;35.37;21.91;100448.81;18623902;31;20100;-56
2022/07/04 09:00:13;;;;;;;2.00;1.10;;;;;;;35.41;21.87;100450.19;18627091;31;20110;-56
2022/07/04 09:10:18;;;;;;;1.45;1.00;;;;;;;35.22;21.18;100449.47;18631051;31;20135;-56
2022/07/04 09:20:23;;;;;;;3.05;1.08;;;;;;;35.70;19.78;100435.34;18630673;31;20096;-56
2022/07/04 09:30:29;;;;;;;2.40;1.20;;;;;;;36.36;19.73;100429.94;18629715;31;20087;-56
2022/07/04 09:40:33;;;;;;;1.40;0.98;;;;;;;36.86;19.30;100415.38;18629463;31;20091;-55
2022/07/04 09:50:38;;;;;;;1.10;1.00;;;;;;;37.28;18.36;100424.19;18627652;31;20083;-55
2022/07/04 10:00:43;;;;;;;2.33;1.10;;;;;;;37.85;17.66;100427.59;18616198;31;20094;-55
2022/07/04 10:10:48;;;;;;;2.37;1.08;;;;;;;38.43;17.48;100413.44;18623536;31;20119;-56
2022/07/04 10:20:53;;;;;;;1.65;1.08;;;;;;;38.17;16.80;100407.38;18551245;32;20107;-56
2022/07/04 10:30:59;;;;;;;1.08;0.77;;;;;;;38.80;16.98;100387.13;18563533;32;20427;-55
2022/07/04 10:41:04;;;;;;;1.52;0.80;;;;;;;39.50;15.39;100380.38;18562166;32;20435;-55
2022/07/04 10:51:08;;;;;;;1.52;0.88;;;;;;;39.40;15.50;100356.94;18562000;32;20106;-55
2022/07/04 11:01:12;;;;;;;1.35;0.93;;;;;;;39.57;14.51;100361.31;18548329;32;20100;-55
2022/07/04 11:11:50;;;;;;;1.50;0.73;;;;;;;39.60;14.69;100347.25;18548114;32;20104;-56
2022/07/04 11:21:54;;;;;;;1.23;0.90;;;;;;;39.85;14.76;100339.50;18582662;31;20084;-56
2022/07/04 11:31:59;;;;;;;1.05;0.90;;;;;;;40.13;15.41;100325.00;18576976;31;20470;-56
2022/07/04 11:52:25;;;;;;;1.35;0.85;;;;;;;40.56;14.41;100298.50;18583698;31;20424;-55
2022/07/04 12:03:00;;;;;;;1.87;0.95;;;;;;;40.14;13.42;100287.56;18602153;31;20230;-56
2022/07/04 12:13:08;;;;;;;1.10;0.70;;;;;;;40.23;13.67;100286.34;18610902;31;20114;-55
2022/07/04 12:23:12;;;;;;;1.15;0.80;;;;;;;40.54;13.85;100284.19;18611313;31;20156;-55
2022/07/04 12:33:19;;;;;;;0.77;0.65;;;;;;;40.52;12.97;100278.91;18610540;31;20096;-55
2022/07/04 12:43:22;;;;;;;;;;;;;;;40.87;12.60;100273.38;18593204;31;139404;-55
2022/07/04 12:53:26;;;;;;;1.02;0.70;;;;;;;40.57;13.01;100276.44;18625306;31;19975;-55
2022/07/04 13:03:30;;;;;;;0.73;0.73;;;;;;;40.98;12.71;100260.97;18573414;31;20420;-55
2022/07/04 13:13:34;;;;;;;2.67;0.90;;;;;;;40.21;12.30;100272.88;18552928;32;20408;-56
2022/07/04 13:23:38;;;;;;;2.80;1.15;;;;;;;40.87;13.04;100261.56;18555272;32;20088;-55
2022/07/04 13:33:42;;;;;;;1.02;0.90;;;;;;;41.45;13.22;100257.41;18556151;32;20468;-55
2022/07/04 13:43:46;;;;;;;1.00;0.85;;;;;;;40.68;13.38;100272.22;18575467;31;20110;-55
2022/07/04 13:53:50;;;;;;;1.87;0.95;;;;;;;40.75;12.97;100251.22;18629218;31;20110;-56
2022/07/04 14:03:54;;;;;;;5.75;1.30;;;;;;;39.81;14.86;100248.03;18604753;31;20108;-55
2022/07/04 14:14:00;;;;;;;1.50;1.10;;;;;;;40.02;14.86;100232.63;18588474;31;20092;-56
2022/07/04 14:24:03;;;;;;;1.50;1.17;;;;;;;40.21;15.17;100229.12;18570829;31;20092;-55
2022/07/04 14:34:11;;;;;;;1.77;1.12;;;;;;;39.82;14.77;100233.31;18564361;31;20582;-55
2022/07/04 14:44:14;;;;;;;1.67;1.10;;;;;;;39.79;14.93;100220.09;18561896;32;20097;-55
2022/07/04 14:54:19;;;;;;;1.17;0.90;;;;;;;39.50;15.45;100211.06;18563805;32;20206;-56
2022/07/04 15:04:22;;;;;;;2.72;1.20;;;;;;;39.19;15.15;100223.22;18575377;31;20369;-56
2022/07/04 15:14:27;;;;;;;2.20;1.25;;;;;;;38.94;15.78;100218.12;18561494;32;20093;-56
2022/07/04 15:24:30;;;;;;;1.27;1.10;;;;;;;38.39;15.89;100204.94;18562032;32;20088;-56
2022/07/04 15:34:34;;;;;;;1.85;1.00;;;;;;;38.46;15.13;100205.88;18562349;32;20381;-55
2022/07/04 15:44:38;;;;;;;1.48;0.98;;;;;;;38.09;15.70;100205.00;18561882;32;20104;-55
2022/07/04 15:54:43;;;;;;;1.73;0.80;;;;;;;38.16;15.73;100195.88;18561359;32;20096;-55
2022/07/04 16:04:46;;;;;;;1.65;1.08;;;;;;;37.59;16.82;100202.81;18546430;31;20096;-55
2022/07/04 16:14:51;;;;;;;5.65;1.50;;;;;;;37.17;17.73;100216.78;18606712;31;20140;-56
2022/07/04 16:24:54;;;;;;;2.65;1.70;;;;;;;36.88;21.11;100229.22;18611117;31;20099;-55
2022/07/04 16:34:58;;;;;;;3.80;1.87;;;;;;;36.28;23.58;100228.00;18596128;31;20110;-55
2022/07/04 16:45:02;;;;;;;5.62;1.77;;;;;;;35.80;24.36;100229.69;18610202;31;20186;-54
2022/07/04 16:55:08;;;;;;;2.37;1.73;;;;;;;35.75;24.74;100225.81;18610146;31;20100;-56
2022/07/04 17:05:19;;;;;;;3.05;1.60;;;;;;;35.24;26.04;100230.41;18586770;31;20110;-56
2022/07/04 17:15:24;;;;;;;3.97;2.05;;;;;;;34.69;26.43;100224.56;18562567;31;20144;-56
2022/07/04 17:25:28;;;;;;;2.87;1.55;;;;;;;34.40;27.05;100223.09;18564381;32;20108;-56
2022/07/04 17:35:33;;;;;;;2.95;1.80;;;;;;;34.03;27.74;100216.19;18599443;31;20100;-55
2022/07/04 17:45:36;;;;;;;4.90;1.62;;;;;;;33.87;26.77;100206.09;18630274;31;20088;-55
2022/07/04 17:55:41;;;;;;;2.80;1.58;;;;;;;33.62;26.89;100197.81;18630106;31;20112;-55
2022/07/04 18:05:44;;;;;;;3.22;1.52;;;;;;;33.43;26.71;100183.47;18629934;31;20108;-55
2022/07/04 18:15:49;;;;;;;2.33;1.30;;;;;;;33.15;27.20;100185.47;18629049;31;20088;-55
2022/07/04 18:25:53;;;;;;;4.45;1.67;;;;;;;33.16;27.34;100206.09;18611755;31;20111;-56
2022/07/04 18:35:57;;;;;;;4.43;2.17;;;;;;;33.37;26.24;100218.41;18627802;31;20096;-56
2022/07/04 18:46:01;;;;;;;3.08;1.95;;;;;;;32.86;27.59;100229.78;18613434;31;20115;-56
2022/07/04 18:56:06;;;;;;;3.40;1.98;;;;;;;33.10;28.70;100240.00;18614733;31;20105;-55
2022/07/04 19:06:10;;;;;;;5.18;1.90;;;;;;;31.87;32.28;100249.16;18628359;31;20114;-56
2022/07/04 19:16:14;;;;;;;4.62;2.58;;;;;;;31.79;32.54;100259.81;18617937;31;20434;-57
2022/07/04 19:26:18;;;;;;;3.55;1.90;;;;;;;31.69;32.14;100262.50;18628343;31;20100;-56
2022/07/04 19:36:23;;;;;;;3.30;1.80;;;;;;;31.95;29.91;100270.03;18627193;31;20096;-56
2022/07/04 19:46:26;;;;;;;4.93;2.00;;;;;;;31.89;32.94;100286.78;18625499;31;20158;-56
2022/07/04 19:56:31;;;;;;;13.38;2.42;;;;;;;30.81;35.36;100293.81;18571567;31;20104;-55
2022/07/04 20:06:34;;;;;;;2.83;1.98;;;;;;;30.97;34.50;100279.84;18619566;31;20545;-55
2022/07/04 20:16:39;;;;;;;3.37;1.80;;;;;;;30.92;35.00;100289.28;18610784;31;20120;-55
2022/07/04 20:26:42;;;;;;;4.60;2.20;;;;;;;30.83;36.08;100289.16;18611192;31;20176;-56
2022/07/04 20:37:08;;;;;;;5.40;1.80;;;;;;;30.77;36.78;100288.84;18624658;31;20330;-55
2022/07/04 20:47:12;;;;;;;3.97;2.00;;;;;;;30.29;38.17;100280.44;18622527;31;20129;-56
2022/07/04 20:57:16;;;;;;;6.45;2.72;;;;;;;29.55;37.48;100284.94;18622223;31;20111;-56
2022/07/04 21:07:20;;;;;;;3.55;1.87;;;;;;;30.39;36.88;100281.31;18621774;31;20153;-56
2022/07/04 21:17:24;;;;;;;3.53;1.75;;;;;;;30.34;38.80;100280.91;18606790;31;20092;-56
2022/07/04 21:27:29;;;;;;;6.10;2.00;;;;;;;30.05;39.33;100297.75;18606019;31;20114;-56
2022/07/04 21:37:34;;;;;;;4.97;2.30;;;;;;;29.81;39.93;100300.69;18620930;31;20352;-55
2022/07/04 21:47:37;;;;;;;4.50;2.58;;;;;;;29.43;40.94;100311.84;18614250;31;20115;-55
2022/07/04 21:57:42;;;;;;;4.18;2.15;;;;;;;28.69;43.50;100304.44;18572907;31;20467;-55
2022/07/04 22:07:45;;;;;;;6.20;2.47;;;;;;;29.07;42.96;100314.78;18577587;31;20092;-56
2022/07/04 22:17:50;;;;;;;3.50;1.83;;;;;;;29.12;42.91;100332.34;18562499;32;20119;-56
2022/07/04 22:27:53;;;;;;;3.30;1.90;;;;;;;29.02;43.63;100332.22;18561223;31;20100;-56
2022/07/04 22:37:57;;;;;;;5.72;2.47;;;;;;;28.78;44.56;100357.41;18584596;31;20118;-56
2022/07/04 22:48:01;;;;;;;6.90;2.15;;;;;;;28.18;47.09;100361.09;18580000;31;20093;-56
2022/07/04 22:58:05;;;;;;;4.60;2.20;;;;;;;28.15;46.09;100368.53;18592761;31;20111;-56
2022/07/04 23:08:08;;;;;;;6.57;2.20;;;;;;;28.52;45.73;100363.00;18591375;31;20088;-56
2022/07/04 23:18:13;;;;;;;3.83;1.95;;;;;;;28.22;45.00;100365.31;18589630;31;20201;-56
2022/07/04 23:28:17;;;;;;;4.87;2.25;;;;;;;28.59;43.70;100360.69;18562506;31;20352;-56
2022/07/04 23:38:21;;;;;;;4.78;2.00;;;;;;;28.17;45.11;100369.28;18559748;32;20138;-56
2022/07/04 23:48:25;;;;;;;4.57;2.00;;;;;;;27.54;45.88;100365.00;18558740;32;20137;-56
2022/07/04 23:58:29;;;;;;;2.28;1.62;;;;;;;28.39;43.89;100360.44;18558773;32;20088;-56
